createdAt,value
2022-09-09T00:08:08.641Z,18
2022-09-09T00:24:42.907Z,19
2022-09-09T00:41:17.207Z,20
2022-09-09T00:57:52.223Z,21
2022-09-09T01:14:27.161Z,22
2022-09-09T01:31:01.337Z,23
2022-09-09T01:47:35.800Z,23
2022-09-09T02:04:05.565Z,23
2022-09-09T02:20:39.719Z,21
2022-09-09T02:37:14.925Z,24
2022-09-09T02:53:48.830Z,24
2022-09-09T03:10:23.283Z,23
2022-09-09T03:26:58.993Z,24
2022-09-09T03:43:33.722Z,23
2022-09-09T04:00:07.615Z,24
2022-09-09T04:16:41.964Z,23
2022-09-09T04:33:16.719Z,23
2022-09-09T04:49:50.667Z,23
2022-09-09T05:06:25.148Z,23
2022-09-09T05:23:00.841Z,22
2022-09-09T05:39:30.879Z,22
2022-09-09T05:56:05.460Z,22
2022-09-09T06:12:39.423Z,22
2022-09-09T06:29:14.551Z,22
2022-09-09T06:45:49.039Z,21
2022-09-09T07:02:24.701Z,22
2022-09-09T07:19:00.944Z,23
2022-09-09T07:35:37.430Z,22
2022-09-09T07:52:18.249Z,21
2022-09-09T08:08:53.130Z,18
2022-09-09T08:25:30.200Z,19
2022-09-09T08:42:07.124Z,20
2022-09-09T08:58:44.805Z,21
2022-09-09T09:15:16.518Z,20
2022-09-09T09:31:54.218Z,19
2022-09-09T09:48:32.115Z,21
2022-09-09T10:05:09.692Z,20
2022-09-09T10:21:47.364Z,20
2022-09-09T10:38:24.544Z,21
2022-09-09T10:55:01.758Z,22
2022-09-09T11:11:38.493Z,23
2022-09-09T11:28:16.410Z,22
2022-09-09T11:44:52.910Z,21
2022-09-09T12:01:29.517Z,21
2022-09-09T12:18:06.673Z,21
2022-09-09T12:34:44.178Z,21
2022-09-09T12:51:16.568Z,22
2022-09-09T13:07:53.364Z,20
2022-09-09T13:24:30.182Z,21
2022-09-09T13:41:07.594Z,21
2022-09-09T13:57:45.230Z,20
2022-09-09T14:14:22.786Z,21
2022-09-09T14:30:59.781Z,21
2022-09-09T14:47:35.995Z,20
2022-09-09T15:04:13.158Z,21
2022-09-09T15:20:49.887Z,22
2022-09-09T15:37:27.673Z,20
2022-09-09T15:54:04.450Z,19
2022-09-09T16:10:41.243Z,19
2022-09-09T16:27:17.375Z,20
2022-09-09T16:43:48.657Z,20
2022-09-09T17:00:24.107Z,18
2022-09-09T17:17:13.739Z,19
2022-09-09T17:33:34.514Z,18
2022-09-09T17:50:10.030Z,19
2022-09-09T18:06:46.076Z,18
2022-09-09T18:39:56.983Z,18
2022-09-09T18:56:32.559Z,18
2022-09-09T19:13:07.853Z,18
2022-09-09T19:29:43.493Z,17
2022-09-09T19:46:18.120Z,18
2022-09-09T20:03:17.568Z,18
2022-09-09T20:19:29.579Z,18
2022-09-09T20:35:59.659Z,18
2022-09-09T20:52:34.536Z,18
2022-09-09T21:09:08.624Z,18
2022-09-09T21:25:44.493Z,18
2022-09-09T21:42:20.231Z,19
2022-09-09T21:58:55.874Z,19
2022-09-09T22:15:31.222Z,20
2022-09-09T22:32:07.196Z,20
2022-09-09T22:48:42.535Z,20
2022-09-09T23:05:16.740Z,20
2022-09-09T23:21:52.409Z,21
2022-09-09T23:38:28.271Z,20
2022-09-09T23:55:03.780Z,20
